Time;durP1;ratioP1;P1;durP2;ratioP2;P2;SDS_P1;SDS_P2;PMS_P1;PMS_P2;Temp;Humidity;BMP_temperature;BMP_pressure;BME280_temperature;BME280_humidity;BME280_pressure;Samples;Min_cycle;Max_cycle;Signal;HPM_P1;HPM_P2
2024/04/17 00:01:39;;;;;;;4.97;2.65;;;7.50;99.90;;;;;;6527077;22;20041;-79
2024/04/17 00:04:10;;;;;;;5.63;2.13;;;7.40;99.90;;;;;;6525346;22;20597;-79
2024/04/17 00:06:41;;;;;;;3.30;1.90;;;7.50;99.90;;;;;;6527785;22;20012;-79
2024/04/17 00:09:11;;;;;;;3.83;1.50;;;7.50;99.90;;;;;;6526920;22;20317;-79
2024/04/17 00:11:39;;;;;;;5.20;2.20;;;7.40;99.90;;;;;;6523656;21;20091;-79
2024/04/17 00:14:09;;;;;;;6.20;1.65;;;7.30;99.90;;;;;;6526385;22;20307;-79
2024/04/17 00:16:37;;;;;;;5.70;2.00;;;7.40;99.90;;;;;;6525555;22;20012;-79
2024/04/17 00:19:07;;;;;;;7.13;2.40;;;7.40;99.90;;;;;;6527725;22;20029;-79
2024/04/17 00:21:35;;;;;;;4.65;1.80;;;7.50;99.90;;;;;;6481873;22;19997;-79
2024/04/17 00:24:08;;;;;;;5.78;1.85;;;7.40;99.90;;;;;;6480211;22;20015;-79
2024/04/17 00:26:36;;;;;;;3.38;1.48;;;7.40;99.90;;;;;;6482479;22;20052;-79
2024/04/17 00:29:06;;;;;;;4.10;1.40;;;7.40;99.90;;;;;;6481591;22;19997;-79
2024/04/17 00:31:34;;;;;;;6.97;2.42;;;7.40;99.90;;;;;;6526912;22;20001;-79
2024/04/17 00:34:04;;;;;;;7.85;2.13;;;7.50;99.90;;;;;;6481152;22;20323;-79
2024/04/17 00:36:32;;;;;;;4.35;2.03;;;7.40;99.90;;;;;;6526319;22;20012;-78
2024/04/17 00:39:03;;;;;;;3.28;1.77;;;7.40;99.90;;;;;;6524578;22;20452;-79
2024/04/17 00:41:34;;;;;;;4.10;2.13;;;7.40;99.90;;;;;;6480918;22;20005;-79
2024/04/17 00:44:04;;;;;;;5.35;2.50;;;7.40;99.90;;;;;;6524445;22;20001;-79
2024/04/17 00:46:37;;;;;;;3.88;1.90;;;7.30;99.90;;;;;;6524661;22;20016;-79
2024/04/17 00:49:07;;;;;;;4.43;2.50;;;7.30;99.90;;;;;;6524583;22;19997;-79
2024/04/17 00:51:36;;;;;;;4.25;1.80;;;7.30;99.90;;;;;;6481258;22;20016;-78
2024/04/17 00:54:07;;;;;;;3.92;2.13;;;7.30;99.90;;;;;;6527326;22;19997;-80
2024/04/17 00:56:39;;;;;;;4.57;1.90;;;7.30;99.90;;;;;;6481250;22;20012;-80
2024/04/17 00:59:11;;;;;;;2.92;1.60;;;7.90;99.90;;;;;;6481615;22;20050;-79
2024/04/17 01:01:39;;;;;;;5.18;2.47;;;7.60;99.90;;;;;;6526786;22;20016;-80
2024/04/17 01:04:09;;;;;;;6.75;2.28;;;7.70;99.90;;;;;;6482066;22;20083;-79
2024/04/17 01:06:37;;;;;;;6.55;2.17;;;7.20;99.90;;;;;;6524324;22;19997;-79
2024/04/17 01:09:07;;;;;;;3.67;2.00;;;7.20;99.90;;;;;;6481015;22;20005;-79
2024/04/17 01:11:41;;;;;;;3.90;1.95;;;7.20;99.90;;;;;;6523233;21;20037;-79
2024/04/17 01:14:12;;;;;;;4.22;2.15;;;7.30;99.90;;;;;;6482259;22;20016;-80
2024/04/17 01:16:40;;;;;;;5.40;2.53;;;7.10;99.90;;;;;;6482179;22;20420;-79
2024/04/17 01:19:12;;;;;;;5.18;1.85;;;7.10;99.90;;;;;;6481370;22;20017;-79
2024/04/17 01:21:40;;;;;;;4.35;2.13;;;7.10;99.90;;;;;;6480810;22;20079;-79
2024/04/17 01:24:13;;;;;;;5.38;2.70;;;7.10;99.90;;;;;;6527366;22;20079;-79
2024/04/17 01:26:40;;;;;;;5.63;2.20;;;7.10;99.90;;;;;;6483832;22;20005;-79
2024/04/17 01:29:11;;;;;;;7.82;1.95;;;7.60;99.90;;;;;;6482361;22;20016;-80
2024/04/17 01:31:39;;;;;;;4.82;2.22;;;7.60;99.90;;;;;;6480889;22;20314;-80
2024/04/17 01:34:09;;;;;;;5.55;2.22;;;7.40;99.90;;;;;;6481740;22;19993;-79
2024/04/17 01:36:37;;;;;;;4.22;2.10;;;7.00;99.90;;;;;;6481327;22;20008;-79
2024/04/17 01:39:07;;;;;;;4.93;2.25;;;7.00;99.90;;;;;;6527933;22;20033;-79
2024/04/17 01:41:37;;;;;;;5.20;2.13;;;7.00;99.90;;;;;;6482172;22;20002;-79
2024/04/17 01:44:08;;;;;;;6.10;2.40;;;7.10;99.90;;;;;;6481415;22;20009;-79
2024/04/17 01:46:35;;;;;;;5.28;2.60;;;7.00;99.90;;;;;;6526292;22;19993;-79
2024/04/17 01:49:05;;;;;;;5.07;2.47;;;7.20;99.90;;;;;;6481172;22;20429;-80
2024/04/17 01:51:33;;;;;;;5.65;2.67;;;7.30;99.90;;;;;;6522723;22;20343;-79
2024/04/17 01:54:03;;;;;;;5.82;1.92;;;7.00;99.90;;;;;;6481212;22;20013;-79
2024/04/17 01:56:31;;;;;;;5.13;2.60;;;7.10;99.90;;;;;;6480533;22;20005;-79
2024/04/17 01:59:04;;;;;;;5.32;2.28;;;7.00;99.90;;;;;;6481049;22;20417;-79
2024/04/17 02:01:32;;;;;;;6.93;2.60;;;7.60;99.90;;;;;;6480385;22;20416;-79
2024/04/17 02:04:02;;;;;;;5.22;2.78;;;7.50;99.90;;;;;;6482448;22;20005;-80
2024/04/17 02:06:31;;;;;;;4.13;2.30;;;6.90;99.90;;;;;;6527507;22;20005;-79
2024/04/17 02:09:01;;;;;;;5.10;2.30;;;7.30;99.90;;;;;;6526696;22;20005;-79
2024/04/17 02:11:29;;;;;;;5.38;2.45;;;7.00;99.90;;;;;;6480694;22;20005;-79
2024/04/17 02:13:59;;;;;;;5.22;2.42;;;7.00;99.90;;;;;;6525616;22;20013;-79
2024/04/17 02:16:29;;;;;;;5.28;1.92;;;7.00;99.90;;;;;;6480474;22;20001;-79
2024/04/17 02:19:00;;;;;;;4.15;3.03;;;7.80;99.90;;;;;;6479370;22;20009;-79
2024/04/17 02:21:27;;;;;;;5.65;2.00;;;6.90;99.90;;;;;;6526627;22;20005;-79
2024/04/17 02:23:58;;;;;;;4.28;1.70;;;6.80;99.90;;;;;;6523462;22;20046;-79
2024/04/17 02:26:25;;;;;;;4.15;1.88;;;6.90;99.90;;;;;;6481282;22;20075;-79
2024/04/17 02:28:55;;;;;;;4.50;1.73;;;7.30;99.90;;;;;;6525976;22;20012;-79
2024/04/17 02:31:23;;;;;;;3.22;1.50;;;7.00;99.90;;;;;;6479710;22;20032;-79
2024/04/17 02:33:56;;;;;;;3.25;1.60;;;6.90;99.90;;;;;;6480589;22;20001;-79
2024/04/17 02:36:24;;;;;;;2.80;1.50;;;6.90;99.90;;;;;;6528036;22;20017;-79
2024/04/17 02:38:54;;;;;;;3.67;1.40;;;6.90;99.90;;;;;;6483845;22;20417;-79
2024/04/17 02:41:21;;;;;;;3.30;1.35;;;7.00;99.90;;;;;;6483038;22;20009;-79
2024/04/17 02:43:52;;;;;;;3.65;1.50;;;6.90;99.90;;;;;;6527648;22;20441;-79
2024/04/17 02:46:19;;;;;;;2.60;1.42;;;6.90;99.90;;;;;;6528567;22;20009;-80
2024/04/17 02:48:50;;;;;;;2.72;1.30;;;7.00;99.90;;;;;;6483851;22;20005;-80
2024/04/17 02:51:20;;;;;;;3.35;1.38;;;6.90;99.90;;;;;;6482547;22;19997;-79
2024/04/17 02:53:50;;;;;;;2.85;1.38;;;7.10;99.90;;;;;;6527864;22;20016;-79
2024/04/17 02:56:18;;;;;;;3.75;1.83;;;7.00;99.90;;;;;;6481283;22;20305;-79
2024/04/17 02:58:48;;;;;;;3.17;1.48;;;7.00;99.90;;;;;;6481383;22;20013;-79
2024/04/17 03:01:16;;;;;;;3.17;1.35;;;7.00;99.90;;;;;;6482032;22;20005;-79
2024/04/17 03:03:47;;;;;;;3.13;1.58;;;7.00;99.90;;;;;;6482860;22;20009;-79
2024/04/17 03:06:14;;;;;;;5.40;2.65;;;6.90;99.90;;;;;;6482514;22;20016;-79
2024/04/17 03:08:48;;;;;;;4.63;3.38;;;6.90;99.90;;;;;;6525815;22;20053;-79
2024/04/17 03:11:16;;;;;;;4.45;2.72;;;7.30;99.90;;;;;;6478161;22;20013;-79
2024/04/17 03:13:46;;;;;;;4.80;2.47;;;7.00;99.90;;;;;;6524730;22;20013;-79
2024/04/17 03:16:14;;;;;;;6.47;2.42;;;6.90;99.90;;;;;;6525576;22;20075;-78
2024/04/17 03:18:44;;;;;;;4.45;2.10;;;6.90;99.90;;;;;;6523345;22;20005;-79
2024/04/17 03:21:11;;;;;;;3.80;1.80;;;6.90;99.90;;;;;;6524495;22;20005;-79
2024/04/17 03:23:42;;;;;;;2.63;1.08;;;7.00;99.90;;;;;;6482687;22;20021;-79
2024/04/17 03:26:15;;;;;;;4.28;1.52;;;7.00;99.90;;;;;;6526039;22;20071;-79
2024/04/17 03:28:42;;;;;;;;;;;7.00;99.90;;;;;;6527765;22;20376;-79
2024/04/17 03:31:12;;;;;;;3.10;1.17;;;7.00;99.90;;;;;;6525750;22;19922;-79
2024/04/17 03:33:40;;;;;;;2.63;1.30;;;7.00;99.90;;;;;;6527209;22;20455;-79
2024/04/17 03:36:11;;;;;;;8.32;1.30;;;6.90;99.90;;;;;;6528358;22;20045;-79
2024/04/17 03:38:41;;;;;;;5.03;1.40;;;7.00;99.90;;;;;;6481981;22;20015;-80
2024/04/17 03:41:14;;;;;;;2.58;0.80;;;6.90;99.90;;;;;;6483837;22;20001;-79
2024/04/17 03:43:44;;;;;;;;;;;6.60;99.90;;;;;;6483870;22;20005;-78
2024/04/17 03:46:14;;;;;;;4.80;0.98;;;6.80;99.90;;;;;;6524896;22;19930;-79
2024/04/17 03:48:44;;;;;;;4.03;1.17;;;6.80;99.90;;;;;;6527086;22;20005;-78
2024/04/17 03:51:12;;;;;;;3.15;1.48;;;6.90;99.90;;;;;;6482702;22;20417;-78
2024/04/17 03:53:42;;;;;;;2.45;0.90;;;6.90;99.90;;;;;;6526023;22;20008;-79
2024/04/17 03:56:15;;;;;;;2.10;0.98;;;6.90;99.90;;;;;;6527847;22;20009;-78
2024/04/17 03:58:42;;;;;;;;;;;6.90;99.90;;;;;;6528490;22;20012;-79
2024/04/17 04:01:13;;;;;;;3.28;1.70;;;6.90;99.90;;;;;;6523885;22;20330;-79
2024/04/17 04:03:40;;;;;;;3.67;2.22;;;6.90;99.90;;;;;;6482316;22;20020;-79
2024/04/17 04:06:11;;;;;;;3.67;1.40;;;6.90;99.90;;;;;;6481659;22;20305;-78
2024/04/17 04:08:38;;;;;;;2.22;1.15;;;6.90;99.90;;;;;;6483404;22;20072;-80
2024/04/17 04:11:08;;;;;;;3.38;1.17;;;6.90;99.90;;;;;;6524712;21;20377;-79
2024/04/17 04:13:39;;;;;;;5.32;1.73;;;6.90;99.90;;;;;;6526422;22;20437;-79
2024/04/17 04:16:10;;;;;;;2.65;1.20;;;6.90;99.90;;;;;;6481357;22;20071;-78
2024/04/17 04:18:38;;;;;;;3.33;1.45;;;6.90;99.90;;;;;;6524901;22;20001;-80
2024/04/17 04:21:08;;;;;;;4.32;2.10;;;6.90;99.90;;;;;;6481277;22;20414;-79
2024/04/17 04:23:36;;;;;;;4.50;1.83;;;6.90;99.90;;;;;;6525114;22;20029;-79
2024/04/17 04:26:06;;;;;;;4.18;2.08;;;6.90;99.90;;;;;;6483166;22;20005;-78
2024/04/17 04:28:34;;;;;;;2.65;1.40;;;6.90;99.90;;;;;;6481706;22;20421;-78
2024/04/17 04:31:07;;;;;;;3.13;1.67;;;6.90;99.90;;;;;;6481971;22;20016;-79
2024/04/17 04:33:34;;;;;;;2.55;1.20;;;6.90;99.90;;;;;;6481950;22;19997;-78
2024/04/17 04:36:05;;;;;;;3.83;1.80;;;6.80;99.90;;;;;;6482889;22;20001;-79
2024/04/17 04:38:32;;;;;;;4.05;1.90;;;6.90;99.90;;;;;;6481736;22;20005;-78
2024/04/17 04:41:03;;;;;;;3.22;1.92;;;6.90;99.90;;;;;;6527090;22;20005;-78
2024/04/17 04:43:30;;;;;;;2.80;1.75;;;6.80;99.90;;;;;;6481914;22;20001;-78
2024/04/17 04:46:01;;;;;;;3.28;1.80;;;7.00;99.90;;;;;;6526200;22;20008;-78
2024/04/17 04:48:31;;;;;;;3.95;1.75;;;7.10;99.90;;;;;;6480437;22;20005;-78
2024/04/17 04:51:01;;;;;;;3.45;1.73;;;7.10;99.90;;;;;;6483656;22;20016;-79
2024/04/17 04:53:29;;;;;;;4.32;1.67;;;7.10;99.90;;;;;;6483495;22;20318;-78
2024/04/17 04:56:01;;;;;;;4.63;2.25;;;7.20;99.90;;;;;;6481108;22;20079;-79
2024/04/17 04:58:29;;;;;;;2.00;1.25;;;7.20;99.90;;;;;;6479848;22;20462;-78
2024/04/17 05:00:59;;;;;;;7.00;2.33;;;7.20;99.90;;;;;;6481076;22;19997;-79
2024/04/17 05:03:32;;;;;;;;;;;7.20;99.90;;;;;;6482830;22;20001;-78
2024/04/17 05:06:02;;;;;;;4.18;1.70;;;7.20;99.90;;;;;;6524737;22;19922;-79
2024/04/17 05:08:30;;;;;;;4.68;1.52;;;7.20;99.90;;;;;;6521811;22;20409;-79
2024/04/17 05:11:00;;;;;;;3.17;1.20;;;7.60;99.90;;;;;;6480441;22;20001;-79
2024/04/17 05:13:28;;;;;;;3.60;1.17;;;7.50;99.90;;;;;;6525179;22;20005;-78
2024/04/17 05:15:58;;;;;;;3.42;2.08;;;7.50;99.90;;;;;;6481704;22;20005;-79
2024/04/17 05:18:26;;;;;;;5.45;1.60;;;7.50;99.90;;;;;;6483441;22;20294;-79
2024/04/17 05:20:59;;;;;;;5.85;1.50;;;8.40;99.90;;;;;;6483002;22;20100;-78
2024/04/17 05:23:29;;;;;;;3.92;1.60;;;7.70;99.90;;;;;;6486248;22;20041;-80
2024/04/17 05:25:57;;;;;;;5.22;1.67;;;7.70;99.90;;;;;;6528945;22;20327;-79
2024/04/17 05:28:28;;;;;;;3.15;1.65;;;8.60;99.90;;;;;;6486018;22;20066;-81
2024/04/17 05:30:56;;;;;;;2.97;1.13;;;9.10;99.90;;;;;;6530355;22;20487;-79
2024/04/17 05:33:27;;;;;;;3.67;1.55;;;7.40;99.90;;;;;;6485781;22;20387;-80
2024/04/17 05:35:57;;;;;;;4.65;1.90;;;7.50;99.90;;;;;;6484616;22;20000;-78
2024/04/17 05:38:28;;;;;;;4.13;1.60;;;7.90;99.90;;;;;;6527121;22;20142;-78
2024/04/17 05:40:56;;;;;;;3.08;1.50;;;7.60;99.90;;;;;;6532501;22;20013;-80
2024/04/17 05:43:27;;;;;;;3.85;1.38;;;7.60;99.90;;;;;;6487988;22;20007;-81
2024/04/17 05:45:54;;;;;;;3.22;1.15;;;7.70;99.90;;;;;;6533349;22;20001;-81
2024/04/17 05:48:25;;;;;;;3.35;1.70;;;8.20;99.90;;;;;;6491358;22;20001;-82
2024/04/17 05:50:53;;;;;;;2.92;1.17;;;7.90;99.90;;;;;;6489813;22;19997;-82
2024/04/17 05:53:26;;;;;;;3.28;1.20;;;8.80;99.90;;;;;;6531531;22;20016;-80
2024/04/17 05:55:54;;;;;;;3.72;1.13;;;8.20;99.90;;;;;;6489941;22;20005;-81
2024/04/17 05:58:25;;;;;;;2.08;1.00;;;7.70;99.90;;;;;;6488202;22;20016;-78
2024/04/17 06:00:52;;;;;;;12.00;1.92;;;8.00;99.90;;;;;;6535843;22;20012;-79
2024/04/17 06:03:23;;;;;;;3.08;1.30;;;8.20;99.90;;;;;;6488891;22;20005;-83
2024/04/17 06:05:54;;;;;;;2.17;0.95;;;8.70;99.90;;;;;;6489441;22;20005;-78
2024/04/17 06:08:24;;;;;;;13.65;1.77;;;8.00;99.90;;;;;;6489018;22;20009;-79
2024/04/17 06:10:57;;;;;;;2.58;1.25;;;11.00;99.90;;;;;;6532501;21;20001;-80
2024/04/17 06:13:25;;;;;;;9.95;2.35;;;8.70;99.90;;;;;;6538260;22;20008;-80
2024/04/17 06:15:55;;;;;;;5.13;1.27;;;8.50;99.90;;;;;;6538014;22;20005;-81
2024/04/17 06:18:23;;;;;;;3.92;1.00;;;7.20;99.90;;;;;;6494416;22;20005;-82
2024/04/17 06:20:54;;;;;;;3.05;1.10;;;9.20;99.90;;;;;;6538843;22;20084;-81
2024/04/17 06:23:24;;;;;;;30.77;5.50;;;8.80;99.90;;;;;;6537858;22;20029;-81
2024/04/17 06:25:55;;;;;;;3.75;1.35;;;8.80;99.90;;;;;;6491193;22;20037;-81
2024/04/17 06:28:23;;;;;;;2.70;1.25;;;9.00;99.90;;;;;;6492503;22;20040;-81
2024/04/17 06:30:54;;;;;;;6.15;1.38;;;9.40;99.90;;;;;;6494524;22;20011;-80
2024/04/17 06:33:21;;;;;;;4.00;1.13;;;9.10;99.90;;;;;;6495496;22;20012;-82
2024/04/17 06:35:52;;;;;;;2.20;0.82;;;9.40;99.90;;;;;;6490612;22;20004;-81
2024/04/17 06:38:25;;;;;;;16.10;2.25;;;9.00;99.90;;;;;;6493038;22;20075;-81
2024/04/17 06:41:02;;;;;;;12.98;2.58;;;8.50;99.90;;;;;;6490423;22;20001;-83
2024/04/17 06:43:29;;;;;;;2.80;1.10;;;10.70;99.90;;;;;;6491165;22;20008;-79
2024/04/17 06:46:00;;;;;;;4.00;1.05;;;9.20;99.90;;;;;;6491953;22;20008;-81
2024/04/17 06:48:28;;;;;;;3.55;1.30;;;9.30;99.90;;;;;;6537297;22;20005;-80
2024/04/17 06:50:59;;;;;;;3.25;1.20;;;9.90;99.90;;;;;;6493680;22;19997;-82
2024/04/17 06:53:32;;;;;;;4.75;1.45;;;9.50;99.90;;;;;;6536268;22;20337;-83
2024/04/17 06:56:03;;;;;;;52.13;6.82;;;9.40;99.90;;;;;;6532530;22;20079;-82
2024/04/17 06:58:32;;;;;;;6.25;2.08;;;9.60;99.90;;;;;;6489784;22;20029;-79
2024/04/17 07:01:02;;;;;;;2.03;1.40;;;7.90;99.90;;;;;;6491585;22;20001;-79
2024/04/17 07:03:31;;;;;;;53.60;6.15;;;10.50;99.90;;;;;;6538874;22;20025;-83
2024/04/17 07:06:04;;;;;;;6.90;1.60;;;9.90;99.90;;;;;;6490296;22;20016;-81
2024/04/17 07:08:35;;;;;;;3.10;1.75;;;10.70;99.90;;;;;;6493811;22;20013;-79
2024/04/17 07:11:05;;;;;;;10.52;2.13;;;9.60;99.90;;;;;;6535590;21;20013;-80
2024/04/17 07:13:34;;;;;;;23.00;3.90;;;12.60;99.90;;;;;;6497889;22;20075;-82
2024/04/17 07:16:04;;;;;;;8.32;2.38;;;11.10;99.90;;;;;;6533537;22;20052;-80
2024/04/17 07:18:34;;;;;;;38.35;5.85;;;9.80;99.90;;;;;;6494421;22;20005;-82
2024/04/17 07:21:04;;;;;;;8.25;2.17;;;9.80;99.90;;;;;;6538956;21;20011;-79
2024/04/17 07:23:35;;;;;;;5.28;1.77;;;10.20;99.90;;;;;;6544184;22;20013;-82
2024/04/17 07:26:05;;;;;;;4.70;1.48;;;10.20;99.90;;;;;;6546342;22;20019;-84
2024/04/17 07:28:33;;;;;;;4.03;1.42;;;10.50;99.90;;;;;;6548420;22;20005;-83
2024/04/17 07:31:04;;;;;;;2.85;1.35;;;10.30;99.90;;;;;;6499729;22;20554;-81
2024/04/17 07:33:40;;;;;;;1.88;0.98;;;10.00;99.90;;;;;;6498221;22;20079;-84
2024/04/17 07:36:11;;;;;;;160.13;16.08;;;10.40;99.90;;;;;;6544912;22;20051;-79
2024/04/17 07:38:42;;;;;;;7.13;2.05;;;9.90;99.90;;;;;;6503336;22;20009;-83
2024/04/17 07:41:15;;;;;;;7.25;1.60;;;11.40;99.90;;;;;;6546782;22;20079;-85
2024/04/17 07:43:46;;;;;;;1.60;0.90;;;10.50;99.90;;;;;;6544302;22;20005;-81
2024/04/17 07:46:17;;;;;;;2.92;0.98;;;10.30;99.90;;;;;;6499964;22;20005;-80
2024/04/17 07:48:44;;;;;;;2.75;1.40;;;9.90;99.90;;;;;;6533277;22;20013;-78
2024/04/17 07:51:15;;;;;;;3.05;1.50;;;10.40;99.90;;;;;;6484140;22;20012;-79
2024/04/17 07:53:47;;;;;;;3.30;1.38;;;11.00;99.90;;;;;;6483700;22;20005;-81
2024/04/17 07:56:17;;;;;;;38.73;4.93;;;11.30;99.90;;;;;;6530259;22;20005;-78
2024/04/17 07:58:48;;;;;;;5.03;1.50;;;10.40;99.90;;;;;;6487800;22;20232;-78
2024/04/17 08:01:18;;;;;;;4.95;1.70;;;10.30;99.90;;;;;;6534536;22;19997;-80
2024/04/17 09:06:43;;;;;;;39.03;4.57;;;10.60;99.90;;;;;;6646672;20;1351589;-79
2024/04/17 09:09:16;;;;;;;143.43;13.77;;;11.40;99.90;;;;;;6646975;21;20007;-79
2024/04/17 09:11:47;;;;;;;0.68;0.20;;;11.60;98.30;;;;;;6643414;21;20003;-78
2024/04/17 09:14:19;;;;;;;19.75;3.45;;;11.20;97.20;;;;;;6643324;21;20394;-80
2024/04/17 09:16:50;;;;;;;76.53;8.38;;;11.20;98.00;;;;;;6641071;21;20102;-79
2024/04/17 09:19:18;;;;;;;2.17;0.63;;;11.20;97.50;;;;;;6641053;21;20307;-78
2024/04/17 09:21:51;;;;;;;20.35;3.15;;;11.60;97.90;;;;;;6642704;21;20410;-79
2024/04/17 09:24:20;;;;;;;3.10;0.40;;;11.80;96.90;;;;;;6643505;21;20040;-81
2024/04/17 09:26:50;;;;;;;6.55;0.90;;;11.80;96.20;;;;;;6639271;21;20419;-78
2024/04/17 09:29:22;;;;;;;1.10;0.30;;;11.90;95.50;;;;;;6640013;21;20014;-79
2024/04/17 09:31:52;;;;;;;0.47;0.30;;;11.90;95.50;;;;;;6642433;21;20005;-78
2024/04/17 09:34:22;;;;;;;48.13;6.72;;;11.50;94.20;;;;;;6642849;21;19999;-81
2024/04/17 09:37:01;;;;;;;1.25;0.20;;;11.50;95.10;;;;;;6639494;21;20031;-78
2024/04/17 09:39:35;;;;;;;58.58;7.10;;;11.50;94.70;;;;;;6641429;21;20407;-80
2024/04/17 09:42:19;;;;;;;11.88;1.35;;;11.40;94.20;;;;;;6493187;22;20001;-78
2024/04/17 09:44:48;;;;;;;4.70;1.20;;;11.50;94.90;;;;;;6533444;22;20443;-79
2024/04/17 09:47:25;;;;;;;1.00;0.40;;;11.50;93.50;;;;;;6490936;22;20001;-78
2024/04/17 09:49:56;;;;;;;11.07;1.15;;;11.70;94.10;;;;;;6490072;22;20005;-81
2024/04/17 09:52:34;;;;;;;81.20;6.28;;;11.70;93.30;;;;;;6534234;22;20004;-79
2024/04/17 09:55:03;;;;;;;77.25;6.88;;;11.60;92.40;;;;;;6487801;22;20011;-78
2024/04/17 09:57:37;;;;;;;4.28;0.50;;;11.60;92.70;;;;;;6530764;22;20305;-79
2024/04/17 10:00:10;;;;;;;15.50;1.75;;;11.70;93.10;;;;;;6530751;22;19993;-78
2024/04/17 10:02:41;;;;;;;37.60;4.63;;;11.70;93.70;;;;;;6532650;22;20008;-78
2024/04/17 10:05:10;;;;;;;53.83;6.45;;;11.70;93.20;;;;;;6488798;22;20404;-80
2024/04/17 10:08:07;;;;;;;22.25;1.50;;;11.70;92.90;;;;;;6491666;21;20001;-78
2024/04/17 10:10:40;;;;;;;63.60;5.80;;;11.60;93.40;;;;;;6387421;22;20453;-79
2024/04/17 10:13:12;;;;;;;28.85;3.55;;;11.50;93.50;;;;;;6384961;22;20010;-79
2024/04/17 10:15:40;;;;;;;7.13;0.70;;;11.70;94.30;;;;;;6386631;22;20003;-79
2024/04/17 10:18:11;;;;;;;74.13;6.93;;;11.70;93.60;;;;;;6428017;22;20298;-78
2024/04/17 10:20:42;;;;;;;7.10;1.80;;;11.90;92.20;;;;;;6384120;22;20014;-77
2024/04/17 10:23:16;;;;;;;2.78;0.50;;;12.20;92.40;;;;;;6389433;22;20501;-78
2024/04/17 10:25:50;;;;;;;2.28;0.40;;;11.60;92.50;;;;;;6434530;21;20051;-79
2024/04/17 10:28:21;;;;;;;0.70;0.40;;;12.00;92.50;;;;;;6536225;21;20070;-81
2024/04/17 10:30:51;;;;;;;18.40;2.45;;;12.00;93.00;;;;;;6540139;21;19993;-80
2024/04/17 10:33:57;;;;;;;28.33;3.40;;;11.90;93.10;;;;;;6543238;21;20447;-81
2024/04/17 10:36:55;;;;;;;1.45;0.40;;;10.20;92.90;;;;;;6445825;22;20511;-79
2024/04/17 10:39:36;;;;;;;1.33;0.40;;;12.00;92.50;;;;;;6439726;22;20317;-80
2024/04/17 10:42:25;;;;;;;8.23;1.42;;;12.40;92.70;;;;;;6441144;22;20174;-79
2024/04/17 10:44:55;;;;;;;0.52;0.20;;;12.40;92.00;;;;;;6439292;22;20009;-81
2024/04/17 10:47:31;;;;;;;18.05;2.25;;;12.20;91.50;;;;;;6441474;22;19998;-80
2024/04/17 10:53:16;;;;;;;3.60;0.60;;;13.10;92.10;;;;;;6226727;22;20076;-79
2024/04/17 10:56:17;;;;;;;2.78;0.50;;;12.90;89.80;;;;;;6492631;22;20002;-79
2024/04/17 10:58:50;;;;;;;2.45;0.60;;;12.50;89.60;;;;;;6393326;22;20018;-79
2024/04/17 11:01:30;;;;;;;5.72;0.73;;;12.60;90.40;;;;;;6391645;22;20002;-80
2024/04/17 11:04:01;;;;;;;0.60;0.35;;;12.70;90.30;;;;;;6434754;22;19995;-81
2024/04/17 11:06:35;;;;;;;0.50;0.30;;;12.90;89.80;;;;;;6393563;22;19994;-82
2024/04/17 11:09:08;;;;;;;0.68;0.30;;;11.90;87.40;;;;;;6386305;22;20015;-77
2024/04/17 11:11:46;;;;;;;0.68;0.20;;;12.70;88.60;;;;;;6382173;22;20415;-78
2024/04/17 11:14:31;;;;;;;0.50;0.20;;;12.60;87.00;;;;;;6386425;22;20001;-78
2024/04/17 11:17:04;;;;;;;0.70;0.20;;;12.50;88.80;;;;;;6474561;21;20046;-80
2024/04/17 11:19:34;;;;;;;;;;;12.40;90.30;;;;;;6642164;21;20405;-79
2024/04/17 11:22:08;;;;;;;0.57;0.20;;;12.40;90.00;;;;;;6639100;21;19920;-79
2024/04/17 11:24:40;;;;;;;0.75;0.40;;;12.60;88.90;;;;;;6637183;21;20422;-78
2024/04/17 11:27:16;;;;;;;0.20;0.10;;;12.50;89.80;;;;;;6636916;21;19995;-79
2024/04/17 11:29:47;;;;;;;0.95;0.45;;;12.60;86.80;;;;;;6634139;21;20003;-79
2024/04/17 11:32:16;;;;;;;155.85;13.07;;;12.90;86.10;;;;;;6638207;21;20035;-81
2024/04/17 11:34:49;;;;;;;0.90;0.20;;;13.40;87.10;;;;;;6640826;21;20086;-79
2024/04/17 11:37:17;;;;;;;15.50;1.17;;;13.40;84.00;;;;;;6636611;21;20429;-81
2024/04/17 11:39:48;;;;;;;4.00;1.23;;;13.00;85.10;;;;;;6643841;21;20012;-79
2024/04/17 11:42:24;;;;;;;4.70;1.38;;;12.90;85.70;;;;;;6638488;21;20023;-81
2024/04/17 11:48:01;;;;;;;1.30;0.83;;;12.70;86.40;;;;;;6642027;21;20012;-78
2024/04/17 11:50:33;;;;;;;1.75;0.45;;;12.60;86.60;;;;;;6602105;21;20054;-78
2024/04/17 11:53:54;;;;;;;;;;;12.70;87.00;;;;;;6651477;21;20039;-82
2024/04/17 11:56:31;;;;;;;2.33;0.45;;;12.70;87.70;;;;;;6602383;21;19921;-81
2024/04/17 11:59:39;;;;;;;3.13;1.02;;;12.50;86.20;;;;;;6644215;21;20154;-83
2024/04/17 12:02:10;;;;;;;5.47;2.08;;;12.50;87.50;;;;;;6595514;21;20328;-78
2024/04/17 12:04:45;;;;;;;41.28;7.13;;;12.70;85.80;;;;;;6489860;22;20564;-81
2024/04/17 12:07:44;;;;;;;5.75;1.48;;;12.80;85.80;;;;;;6386359;22;19995;-83
2024/04/17 12:10:30;;;;;;;2.05;0.35;;;12.20;85.00;;;;;;6348166;22;20387;-82
2024/04/17 12:13:09;;;;;;;93.63;10.95;;;13.00;86.20;;;;;;6309149;22;20002;-77
2024/04/17 12:15:46;;;;;;;27.70;3.25;;;13.60;86.30;;;;;;6392794;22;20835;-82
2024/04/17 12:18:20;;;;;;;14.35;2.47;;;13.60;84.50;;;;;;6528346;21;19997;-82
2024/04/17 12:21:49;;;;;;;5.28;1.80;;;13.30;83.90;;;;;;6535328;22;20005;-82
2024/04/17 12:26:49;;;;;;;2.45;0.50;;;12.90;82.70;;;;;;6534814;22;19993;-81
2024/04/17 12:27:34;;;;;;;2.40;0.40;;;12.90;85.30;;;;;;6538040;22;20013;-79
2024/04/17 12:30:14;;;;;;;1.23;0.30;;;12.80;84.90;;;;;;6542575;22;20003;-80
2024/04/17 12:32:54;;;;;;;2.22;0.63;;;12.70;85.00;;;;;;6539719;22;20000;-78
2024/04/17 12:35:31;;;;;;;0.93;0.38;;;12.70;86.30;;;;;;6534504;22;20001;-79
2024/04/17 12:38:09;;;;;;;1.23;0.50;;;12.70;85.70;;;;;;6537136;22;19997;-80
2024/04/17 12:40:43;;;;;;;2.20;0.65;;;12.60;86.00;;;;;;6538110;22;20332;-79
2024/04/17 12:43:15;;;;;;;4.18;0.50;;;12.70;85.90;;;;;;6535858;22;20001;-79
2024/04/17 12:45:49;;;;;;;1.02;0.20;;;13.30;85.90;;;;;;6533590;22;20453;-79
2024/04/17 12:48:23;;;;;;;182.30;19.73;;;13.70;83.20;;;;;;6533039;22;20005;-79
2024/04/17 12:50:57;;;;;;;79.28;8.65;;;13.70;85.40;;;;;;6536393;22;20056;-80
2024/04/17 12:53:28;;;;;;;0.65;0.20;;;13.50;82.10;;;;;;6534265;22;19994;-79
2024/04/17 12:56:16;;;;;;;1.67;0.20;;;13.40;82.50;;;;;;6538821;22;20001;-81
2024/04/17 12:58:48;;;;;;;0.85;0.32;;;13.20;82.40;;;;;;6433075;22;19998;-79
2024/04/17 13:01:19;;;;;;;7.53;0.65;;;13.10;83.50;;;;;;6393017;22;20010;-78
2024/04/17 13:03:57;;;;;;;3.05;0.50;;;13.00;84.40;;;;;;6392457;22;20054;-82
2024/04/17 13:06:31;;;;;;;1.83;0.38;;;13.00;84.00;;;;;;6397322;22;20005;-80
2024/04/17 13:09:03;;;;;;;0.82;0.57;;;12.90;83.40;;;;;;6387672;22;20370;-80
2024/04/17 13:11:41;;;;;;;1.85;0.38;;;13.80;84.80;;;;;;6356152;22;19994;-80
2024/04/17 13:14:19;;;;;;;4.00;0.80;;;12.60;85.10;;;;;;6437784;22;20010;-80
2024/04/17 13:16:52;;;;;;;1.17;0.30;;;12.60;86.30;;;;;;6396480;22;20034;-80
2024/04/17 13:20:10;;;;;;;0.70;0.20;;;12.50;86.20;;;;;;6290602;22;20007;-81
2024/04/17 13:22:47;;;;;;;111.57;13.18;;;12.50;86.60;;;;;;6330689;22;20071;-79
2024/04/17 13:25:30;;;;;;;42.83;4.40;;;12.70;87.40;;;;;;6488444;22;20037;-79
2024/04/17 13:28:08;;;;;;;14.00;3.58;;;12.70;86.50;;;;;;6483440;22;20006;-83
2024/04/17 13:30:42;;;;;;;5.72;1.10;;;13.20;87.80;;;;;;6488360;22;20005;-80
2024/04/17 13:33:14;;;;;;;3.25;1.25;;;13.10;87.50;;;;;;6486086;22;20002;-80
2024/04/17 13:36:15;;;;;;;6.00;2.55;;;13.00;88.40;;;;;;6446662;22;20422;-78
2024/04/17 13:39:16;;;;;;;5.82;2.83;;;13.50;87.50;;;;;;6488256;22;20436;-78
2024/04/17 13:41:46;;;;;;;2.60;0.60;;;13.50;86.30;;;;;;6428299;22;20002;-79
2024/04/17 13:44:34;;;;;;;2.75;0.40;;;13.40;85.80;;;;;;6486753;22;19997;-78
2024/04/17 13:47:04;;;;;;;1.63;0.70;;;13.50;85.20;;;;;;6539079;22;20424;-80
2024/04/17 13:49:39;;;;;;;1.90;0.40;;;13.50;85.50;;;;;;6501962;22;19997;-80
2024/04/17 13:52:29;;;;;;;0.90;0.57;;;13.60;85.30;;;;;;6458642;22;19993;-83
2024/04/17 13:55:02;;;;;;;1.00;0.50;;;13.40;85.30;;;;;;6491414;22;19993;-80
2024/04/17 13:57:38;;;;;;;1.10;0.50;;;13.60;85.90;;;;;;6543596;22;20062;-81
2024/04/17 14:00:13;;;;;;;1.60;0.68;;;13.40;85.00;;;;;;6498722;22;20001;-80
2024/04/17 14:03:30;;;;;;;3.33;1.30;;;13.40;86.00;;;;;;6502265;22;20005;-81
2024/04/17 14:06:03;;;;;;;1.02;0.45;;;13.50;85.50;;;;;;6493559;22;20472;-79
2024/04/17 14:08:39;;;;;;;0.88;0.40;;;13.30;85.70;;;;;;6536394;22;20448;-79
2024/04/17 14:11:13;;;;;;;0.85;0.30;;;13.30;86.20;;;;;;6487066;22;20009;-79
2024/04/17 14:14:03;;;;;;;1.95;0.60;;;13.40;87.50;;;;;;6493039;22;20431;-80
2024/04/17 14:16:31;;;;;;;1.08;0.30;;;13.60;86.50;;;;;;6496677;21;20012;-79
2024/04/17 14:19:04;;;;;;;0.75;0.50;;;13.60;86.20;;;;;;6474031;21;20288;-80
2024/04/17 14:21:32;;;;;;;0.88;0.30;;;13.50;85.40;;;;;;6550857;21;20412;-80
2024/04/17 14:24:16;;;;;;;0.95;0.40;;;13.60;86.80;;;;;;6570814;21;20305;-83
2024/04/17 14:26:50;;;;;;;2.33;0.50;;;13.80;87.10;;;;;;6548315;21;20014;-83
2024/04/17 14:29:34;;;;;;;1.00;0.45;;;13.90;86.00;;;;;;6587765;21;20037;-78
2024/04/17 14:32:06;;;;;;;3.22;0.40;;;13.80;85.50;;;;;;6540069;21;20011;-77